createdAt,value
2022-08-22T00:02:14.720Z,15.90
2022-08-22T00:02:48.855Z,18.50
2022-08-22T00:02:55.384Z,16.20
2022-08-22T00:02:57.377Z,16.50
2022-08-22T00:03:04.819Z,19.30
2022-08-22T00:04:52.514Z,15.80
2022-08-22T00:07:28.406Z,15.80
2022-08-22T00:10:04.276Z,15.80
2022-08-22T00:12:42.971Z,15.80
2022-08-22T00:15:31.555Z,15.80
2022-08-22T00:18:12.101Z,15.80
2022-08-22T00:20:44.104Z,15.80
2022-08-22T00:23:18.285Z,15.80
2022-08-22T00:25:59.227Z,15.80
2022-08-22T00:28:35.604Z,15.80
2022-08-22T00:31:16.168Z,15.80
2022-08-22T00:34:02.169Z,15.70
2022-08-22T00:36:34.660Z,15.60
2022-08-22T00:39:11.714Z,15.60
2022-08-22T00:42:29.028Z,15.70
2022-08-22T00:45:31.786Z,15.80
2022-08-22T00:48:24.648Z,15.90
2022-08-22T00:51:10.220Z,15.90
2022-08-22T00:53:57.096Z,15.80
2022-08-22T00:56:52.726Z,15.80
2022-08-22T00:59:46.026Z,15.80
2022-08-22T01:02:27.393Z,15.80
2022-08-22T01:05:10.937Z,15.80
2022-08-22T01:07:54.285Z,15.80
2022-08-22T01:10:46.009Z,15.80
2022-08-22T01:13:31.383Z,15.70
2022-08-22T01:16:16.944Z,15.70
2022-08-22T01:19:12.579Z,15.60
2022-08-22T01:22:13.464Z,15.60
2022-08-22T01:25:26.836Z,15.50
2022-08-22T01:28:39.674Z,15.50
2022-08-22T01:31:55.937Z,15.40
2022-08-22T01:34:52.471Z,15.40
2022-08-22T01:37:43.706Z,15.30
2022-08-22T01:40:53.709Z,15.30
2022-08-22T01:43:51.301Z,15.20
2022-08-22T01:46:36.646Z,15.20
2022-08-22T01:49:15.157Z,15.20
2022-08-22T01:51:52.233Z,15.20
2022-08-22T01:54:35.897Z,15.10
2022-08-22T01:57:08.104Z,15.10
2022-08-22T01:59:42.250Z,15.10
2022-08-22T02:02:27.727Z,15.00
2022-08-22T02:05:03.799Z,15.00
2022-08-22T02:07:45.084Z,15.00
2022-08-22T02:10:21.017Z,15.00
2022-08-22T02:12:57.901Z,15.00
2022-08-22T02:15:36.574Z,14.90
2022-08-22T02:18:15.036Z,14.90
2022-08-22T02:20:58.448Z,14.90
2022-08-22T02:23:36.993Z,14.90
2022-08-22T02:26:09.313Z,14.80
2022-08-22T02:28:56.663Z,14.80
2022-08-22T02:31:39.803Z,14.80
2022-08-22T02:34:35.368Z,14.80
2022-08-22T02:37:14.077Z,14.70
2022-08-22T02:39:51.844Z,14.70
2022-08-22T02:42:28.156Z,14.60
2022-08-22T02:45:06.815Z,14.60
2022-08-22T02:47:42.447Z,14.60
2022-08-22T02:50:20.097Z,14.60
2022-08-22T02:52:53.501Z,14.60
2022-08-22T02:55:36.441Z,14.50
2022-08-22T02:58:11.863Z,14.60
2022-08-22T03:00:49.792Z,14.60
2022-08-22T03:03:22.277Z,14.50
2022-08-22T03:06:01.429Z,14.50
2022-08-22T03:08:35.522Z,14.50
2022-08-22T03:11:29.960Z,14.50
2022-08-22T03:14:08.908Z,14.50
2022-08-22T03:16:41.722Z,14.40
2022-08-22T03:19:18.748Z,14.40
2022-08-22T03:22:03.397Z,14.30
2022-08-22T03:24:38.557Z,14.30
2022-08-22T03:27:15.042Z,14.30
2022-08-22T03:30:03.620Z,14.30
2022-08-22T03:32:51.770Z,14.30
2022-08-22T03:35:37.299Z,14.20
2022-08-22T03:38:18.750Z,14.20
2022-08-22T03:41:21.884Z,14.20
2022-08-22T03:44:06.372Z,14.20
2022-08-22T03:47:17.387Z,14.20
2022-08-22T03:50:23.486Z,14.30
2022-08-22T03:53:19.874Z,14.40
2022-08-22T03:56:28.037Z,14.40
2022-08-22T03:59:28.523Z,14.40
2022-08-22T04:02:43.482Z,14.40
2022-08-22T04:05:45.508Z,14.30
2022-08-22T04:08:47.036Z,14.30
2022-08-22T04:11:44.420Z,14.20
2022-08-22T04:14:51.666Z,14.20
2022-08-22T04:17:47.467Z,14.20
2022-08-22T04:20:40.340Z,14.10
2022-08-22T04:23:28.464Z,14.10
2022-08-22T04:26:10.757Z,14.10
2022-08-22T04:28:46.129Z,14.10
2022-08-22T04:31:17.626Z,14.00
2022-08-22T04:33:52.896Z,14.00
2022-08-22T04:36:24.299Z,14.00
2022-08-22T04:38:59.413Z,14.00
2022-08-22T04:41:46.652Z,14.10
2022-08-22T04:44:18.337Z,14.20
2022-08-22T04:46:53.678Z,14.20
2022-08-22T04:49:30.556Z,14.20
2022-08-22T04:52:06.188Z,14.20
2022-08-22T04:54:44.660Z,14.20
2022-08-22T04:57:23.864Z,14.30
2022-08-22T04:59:52.345Z,14.30
2022-08-22T05:02:27.598Z,14.40
2022-08-22T05:05:03.989Z,14.50
2022-08-22T05:07:38.603Z,14.60
2022-08-22T05:10:13.852Z,14.70
2022-08-22T05:12:47.013Z,14.90
2022-08-22T05:15:23.134Z,14.90
2022-08-22T05:17:54.820Z,15.00
2022-08-22T05:20:27.236Z,15.00
2022-08-22T05:23:00.766Z,15.00
2022-08-22T05:25:33.621Z,15.00
2022-08-22T05:28:12.072Z,15.10
2022-08-22T05:30:41.402Z,15.10
2022-08-22T05:33:19.506Z,15.10
2022-08-22T05:35:57.982Z,15.10
2022-08-22T05:38:32.167Z,15.20
2022-08-22T05:41:06.423Z,15.20
2022-08-22T05:43:38.416Z,15.20
2022-08-22T05:46:10.074Z,15.20
2022-08-22T05:48:43.657Z,15.30
2022-08-22T05:51:21.441Z,15.40
2022-08-22T05:53:51.709Z,15.50
2022-08-22T05:56:26.336Z,15.60
2022-08-22T05:59:00.017Z,15.70
2022-08-22T06:01:33.884Z,15.80
2022-08-22T06:04:16.567Z,15.90
2022-08-22T06:06:53.566Z,16.00
2022-08-22T06:09:34.937Z,16.10
2022-08-22T06:12:13.854Z,16.10
2022-08-22T06:14:58.485Z,16.20
2022-08-22T06:17:32.184Z,16.30
2022-08-22T06:20:01.070Z,16.30
2022-08-22T06:22:36.455Z,16.40
2022-08-22T06:25:10.216Z,16.50
2022-08-22T06:27:38.828Z,16.50
2022-08-22T06:30:08.963Z,16.60
2022-08-22T06:32:58.356Z,16.70
2022-08-22T06:35:53.716Z,16.80
2022-08-22T06:38:26.263Z,16.90
2022-08-22T06:40:55.751Z,17.00
2022-08-22T06:43:26.822Z,17.10
2022-08-22T06:45:55.687Z,17.30
2022-08-22T06:48:24.928Z,17.40
2022-08-22T06:50:59.597Z,17.50
2022-08-22T06:53:35.827Z,17.60
2022-08-22T06:56:05.682Z,17.80
2022-08-22T06:58:37.906Z,17.90
2022-08-22T07:01:12.019Z,18.00
2022-08-22T07:03:45.730Z,18.20
2022-08-22T07:06:16.949Z,18.40
2022-08-22T07:08:47.460Z,18.50
2022-08-22T07:11:21.813Z,18.70
2022-08-22T07:13:54.778Z,18.80
2022-08-22T07:16:34.208Z,18.90
2022-08-22T07:19:03.012Z,19.10
2022-08-22T07:21:42.741Z,19.20
2022-08-22T07:24:16.883Z,19.30
2022-08-22T07:26:57.764Z,19.40
2022-08-22T07:29:33.385Z,19.50
2022-08-22T07:32:11.421Z,19.60
2022-08-22T07:34:53.844Z,19.70
2022-08-22T07:37:33.762Z,19.80
2022-08-22T07:40:15.516Z,20.00
2022-08-22T07:42:49.179Z,20.10
2022-08-22T07:45:21.615Z,20.20
2022-08-22T07:48:03.393Z,20.30
2022-08-22T07:50:34.223Z,20.50
2022-08-22T07:53:10.995Z,20.60
2022-08-22T07:55:49.796Z,20.80
2022-08-22T07:58:19.304Z,21.00
2022-08-22T08:00:49.729Z,21.20
2022-08-22T08:03:21.687Z,21.30
2022-08-22T08:05:50.168Z,21.30
2022-08-22T08:08:24.280Z,21.40
2022-08-22T08:10:57.203Z,21.60
2022-08-22T08:13:30.801Z,21.80
2022-08-22T08:16:00.011Z,22.00
2022-08-22T08:18:31.373Z,22.20
2022-08-22T08:21:03.511Z,22.30
2022-08-22T08:23:40.666Z,22.40
2022-08-22T08:26:15.750Z,22.50
2022-08-22T08:28:49.166Z,22.60
2022-08-22T08:31:24.899Z,22.60
2022-08-22T08:34:00.966Z,22.60
2022-08-22T08:36:50.261Z,22.70
2022-08-22T08:39:24.156Z,22.60
2022-08-22T08:42:26.540Z,22.60
2022-08-22T08:45:25.122Z,22.80
2022-08-22T08:48:21.123Z,23.10
2022-08-22T08:51:06.609Z,23.20
2022-08-22T08:54:05.150Z,23.30
2022-08-22T08:56:39.884Z,23.40
2022-08-22T08:59:42.421Z,23.30
2022-08-22T09:02:43.765Z,23.30
2022-08-22T09:05:36.042Z,23.40
2022-08-22T09:08:34.110Z,23.30
2022-08-22T09:11:31.162Z,23.40
2022-08-22T09:14:17.194Z,23.60
2022-08-22T09:16:58.331Z,23.80
2022-08-22T09:19:47.564Z,23.90
2022-08-22T09:22:50.857Z,23.80
2022-08-22T09:25:36.772Z,23.70
2022-08-22T09:28:15.111Z,23.80
2022-08-22T09:31:21.944Z,24.00
2022-08-22T09:34:05.890Z,24.10
2022-08-22T09:36:44.010Z,24.30
2022-08-22T09:39:18.019Z,24.50
2022-08-22T09:41:56.151Z,24.50
2022-08-22T09:44:39.612Z,24.60
2022-08-22T09:47:24.676Z,24.50
2022-08-22T09:50:05.771Z,24.50
2022-08-22T09:53:02.976Z,24.50
2022-08-22T09:55:43.621Z,24.50
2022-08-22T09:58:23.581Z,24.40
2022-08-22T10:00:56.964Z,24.40
2022-08-22T10:03:52.189Z,24.70
2022-08-22T10:06:29.580Z,25.00
2022-08-22T10:09:05.236Z,25.30
2022-08-22T10:11:43.295Z,25.70
2022-08-22T10:14:22.417Z,25.80
2022-08-22T10:17:00.558Z,26.00
2022-08-22T10:19:33.730Z,26.20
2022-08-22T10:22:29.838Z,26.00
2022-08-22T10:25:23.871Z,25.70
2022-08-22T10:28:06.864Z,25.80
2022-08-22T10:30:48.394Z,25.50
2022-08-22T10:33:24.946Z,25.30
2022-08-22T10:36:04.971Z,25.20
2022-08-22T10:38:43.894Z,25.20
2022-08-22T10:41:25.881Z,25.20
2022-08-22T10:44:04.130Z,25.30
2022-08-22T10:46:38.905Z,25.40
2022-08-22T10:49:19.565Z,25.60
2022-08-22T10:51:50.757Z,25.90
2022-08-22T10:54:36.871Z,26.40
2022-08-22T10:57:20.842Z,26.50
2022-08-22T10:59:57.143Z,26.10
2022-08-22T11:02:55.660Z,26.00
2022-08-22T11:05:42.688Z,26.20
2022-08-22T11:08:49.129Z,26.40
2022-08-22T11:11:40.524Z,26.40
2022-08-22T11:14:32.534Z,26.80
2022-08-22T11:17:30.951Z,26.80
2022-08-22T11:20:20.573Z,27.00
2022-08-22T11:23:12.448Z,26.90
2022-08-22T11:25:54.194Z,26.80
2022-08-22T11:28:56.434Z,27.00
2022-08-22T11:31:36.713Z,26.80
2022-08-22T11:34:14.274Z,26.60
2022-08-22T11:36:54.514Z,26.50
2022-08-22T11:39:28.741Z,26.50
2022-08-22T11:42:06.132Z,26.00
2022-08-22T11:44:50.160Z,25.80
2022-08-22T11:47:26.910Z,26.10
2022-08-22T11:50:00.511Z,26.30
2022-08-22T11:52:41.392Z,26.80
2022-08-22T11:55:33.223Z,27.20
2022-08-22T11:58:23.278Z,27.70
2022-08-22T12:01:03.796Z,27.80
2022-08-22T12:04:00.518Z,27.70
2022-08-22T12:06:55.945Z,27.60
2022-08-22T12:09:35.812Z,27.30
2022-08-22T12:12:21.266Z,27.00
2022-08-22T12:15:00.303Z,27.30
2022-08-22T12:18:21.431Z,27.50
2022-08-22T12:21:02.373Z,27.70
2022-08-22T12:23:56.514Z,27.60
2022-08-22T12:26:34.049Z,27.50
2022-08-22T12:29:18.977Z,27.30
2022-08-22T12:32:34.970Z,26.80
2022-08-22T12:35:29.956Z,26.70
2022-08-22T12:38:29.248Z,26.90
2022-08-22T12:41:14.727Z,27.30
2022-08-22T12:44:05.038Z,27.70
2022-08-22T12:46:46.670Z,28.30
2022-08-22T12:49:36.584Z,28.50
2022-08-22T12:52:21.104Z,28.30
2022-08-22T12:55:09.463Z,27.60
2022-08-22T12:57:54.438Z,27.50
2022-08-22T13:00:31.979Z,27.60
2022-08-22T13:03:03.710Z,27.70
2022-08-22T13:05:40.692Z,27.40
2022-08-22T13:08:17.655Z,27.20
2022-08-22T13:10:48.715Z,27.10
2022-08-22T13:13:31.646Z,27.00
2022-08-22T13:16:07.394Z,26.80
2022-08-22T13:18:44.789Z,26.90
2022-08-22T13:21:18.803Z,27.10
2022-08-22T13:23:58.266Z,27.20
2022-08-22T13:26:32.151Z,27.10
2022-08-22T13:32:00.333Z,26.50
2022-08-22T13:34:39.789Z,26.10
2022-08-22T13:37:14.555Z,26.00
2022-08-22T13:39:48.871Z,25.90
2022-08-22T13:42:30.708Z,26.00
2022-08-22T13:45:04.571Z,26.20
2022-08-22T13:47:39.475Z,26.20
2022-08-22T13:50:14.555Z,26.30
2022-08-22T13:52:52.474Z,26.40
2022-08-22T13:55:31.024Z,26.40
2022-08-22T13:58:03.018Z,26.70
2022-08-22T14:01:15.676Z,26.90
2022-08-22T14:03:49.842Z,26.90
2022-08-22T14:06:37.495Z,27.00
2022-08-22T14:09:14.446Z,26.70
2022-08-22T14:12:12.131Z,26.90
2022-08-22T14:14:43.609Z,27.60
2022-08-22T14:17:20.918Z,28.00
2022-08-22T14:19:59.324Z,28.10
2022-08-22T14:22:34.991Z,28.40
2022-08-22T14:25:07.105Z,28.60
2022-08-22T14:27:40.039Z,28.70
2022-08-22T14:30:17.006Z,28.30
2022-08-22T14:32:51.350Z,28.50
2022-08-22T14:35:37.508Z,28.20
2022-08-22T14:38:29.932Z,28.10
2022-08-22T14:41:03.315Z,28.10
2022-08-22T14:43:50.778Z,28.20
2022-08-22T14:46:26.492Z,28.20
2022-08-22T14:49:16.183Z,28.20
2022-08-22T14:51:50.853Z,28.20
2022-08-22T14:54:22.846Z,28.10
2022-08-22T14:57:01.493Z,28.20
2022-08-22T14:59:39.308Z,27.90
2022-08-22T15:02:11.219Z,27.50
2022-08-22T15:04:42.415Z,27.30
2022-08-22T15:07:13.910Z,27.40
2022-08-22T15:09:49.630Z,27.10
2022-08-22T15:12:26.642Z,26.80
2022-08-22T15:14:58.175Z,26.70
2022-08-22T15:17:36.719Z,26.70
2022-08-22T15:20:14.292Z,26.70
2022-08-22T15:22:46.724Z,26.70
2022-08-22T15:25:18.782Z,26.70
2022-08-22T15:27:50.133Z,26.60
2022-08-22T15:30:36.924Z,26.50
2022-08-22T15:33:24.332Z,26.40
2022-08-22T15:35:55.331Z,26.30
2022-08-22T15:38:30.749Z,26.30
2022-08-22T15:41:39.377Z,26.30
2022-08-22T15:44:17.223Z,26.50
2022-08-22T15:47:05.439Z,26.50
2022-08-22T15:49:51.767Z,26.40
2022-08-22T15:52:28.397Z,26.30
2022-08-22T15:55:23.377Z,26.20
2022-08-22T15:58:13.069Z,26.10
2022-08-22T16:00:46.090Z,26.00
2022-08-22T16:03:27.446Z,25.90
2022-08-22T16:05:59.340Z,25.80
2022-08-22T16:08:33.128Z,25.80
2022-08-22T16:11:33.718Z,25.80
2022-08-22T16:14:24.349Z,25.60
2022-08-22T16:16:57.185Z,25.50
2022-08-22T16:19:28.335Z,25.50
2022-08-22T16:22:13.249Z,25.50
2022-08-22T16:25:02.963Z,25.60
2022-08-22T16:27:31.418Z,25.60
2022-08-22T16:30:08.779Z,25.60
2022-08-22T16:32:38.275Z,25.50
2022-08-22T16:35:08.304Z,25.40
2022-08-22T16:37:51.244Z,25.40
2022-08-22T16:40:23.984Z,25.40
2022-08-22T16:43:09.588Z,25.20
2022-08-22T16:45:45.264Z,25.20
2022-08-22T16:48:35.868Z,25.00
2022-08-22T16:51:10.127Z,24.70
2022-08-22T16:54:10.432Z,24.70
2022-08-22T16:56:53.911Z,24.70
2022-08-22T16:59:44.411Z,24.80
2022-08-22T17:02:37.965Z,24.70
2022-08-22T17:05:21.027Z,24.70
2022-08-22T17:08:02.309Z,24.80
2022-08-22T17:10:56.681Z,24.80
2022-08-22T17:13:38.498Z,24.80
2022-08-22T17:16:21.407Z,24.80
2022-08-22T17:19:12.094Z,24.80
2022-08-22T17:21:51.886Z,24.80
2022-08-22T17:24:34.539Z,24.70
2022-08-22T17:27:08.926Z,24.70
2022-08-22T17:30:01.862Z,24.60
2022-08-22T17:32:42.955Z,24.50
2022-08-22T17:35:21.604Z,24.40
2022-08-22T17:38:02.540Z,24.20
2022-08-22T17:40:42.911Z,24.00
2022-08-22T17:43:48.664Z,23.80
2022-08-22T17:46:36.684Z,23.80
2022-08-22T17:49:13.283Z,23.80
2022-08-22T17:51:49.337Z,23.70
2022-08-22T17:54:21.868Z,23.70
2022-08-22T17:57:05.116Z,23.60
2022-08-22T17:59:39.196Z,23.50
2022-08-22T18:02:16.250Z,23.40
2022-08-22T18:04:52.301Z,23.30
2022-08-22T18:07:31.212Z,23.10
2022-08-22T18:10:07.864Z,22.90
2022-08-22T18:12:43.445Z,22.80
2022-08-22T18:15:22.349Z,22.70
2022-08-22T18:17:55.144Z,22.50
2022-08-22T18:20:28.484Z,22.40
2022-08-22T18:23:03.150Z,22.30
2022-08-22T18:25:39.425Z,22.20
2022-08-22T18:28:15.331Z,22.10
2022-08-22T18:30:57.264Z,22.10
2022-08-22T18:33:33.874Z,22.00
2022-08-22T18:36:09.961Z,21.80
2022-08-22T18:38:46.567Z,21.70
2022-08-22T18:41:23.232Z,21.60
2022-08-22T18:43:56.050Z,21.50
2022-08-22T18:46:33.981Z,21.40
2022-08-22T18:49:15.572Z,21.30
2022-08-22T18:51:44.778Z,21.20
2022-08-22T18:54:32.948Z,21.10
2022-08-22T18:57:08.782Z,21.10
2022-08-22T19:00:00.242Z,21.00
2022-08-22T19:03:04.394Z,20.90
2022-08-22T19:05:53.920Z,20.80
2022-08-22T19:08:56.658Z,20.80
2022-08-22T19:11:38.772Z,20.60
2022-08-22T19:14:48.821Z,20.50
2022-08-22T19:17:58.763Z,20.40
2022-08-22T19:20:49.329Z,20.30
2022-08-22T19:23:43.393Z,20.20
2022-08-22T19:26:35.439Z,20.20
2022-08-22T19:29:10.621Z,20.10
2022-08-22T19:32:01.855Z,20.10
2022-08-22T19:34:41.313Z,20.00
2022-08-22T19:37:33.085Z,19.90
2022-08-22T19:40:05.774Z,19.80
2022-08-22T19:42:39.777Z,19.80
2022-08-22T19:45:22.145Z,19.70
2022-08-22T19:47:58.205Z,19.70
2022-08-22T19:50:32.761Z,19.60
2022-08-22T19:53:28.545Z,19.50
2022-08-22T19:56:09.784Z,19.50
2022-08-22T19:58:52.256Z,19.40
2022-08-22T20:01:49.837Z,19.30
2022-08-22T20:04:48.826Z,19.20
2022-08-22T20:07:33.208Z,19.20
2022-08-22T20:10:17.636Z,19.30
2022-08-22T20:13:11.864Z,19.20
2022-08-22T20:16:02.223Z,19.20
2022-08-22T20:19:06.589Z,19.10
2022-08-22T20:21:44.389Z,19.10
2022-08-22T20:24:21.488Z,19.00
2022-08-22T20:27:12.827Z,18.90
2022-08-22T20:29:46.183Z,18.80
2022-08-22T20:32:19.009Z,18.80
2022-08-22T20:34:49.058Z,18.70
2022-08-22T20:37:40.387Z,18.60
2022-08-22T20:40:56.291Z,18.60
2022-08-22T20:43:24.580Z,18.50
2022-08-22T20:46:08.112Z,18.50
2022-08-22T20:48:43.669Z,18.50
2022-08-22T20:51:16.282Z,18.40
2022-08-22T20:53:51.995Z,18.30
2022-08-22T20:56:37.263Z,18.30
2022-08-22T20:59:27.189Z,18.20
2022-08-22T21:02:03.615Z,18.10
2022-08-22T21:04:42.692Z,17.90
2022-08-22T21:07:11.123Z,17.80
2022-08-22T21:09:56.760Z,17.70
2022-08-22T21:12:26.410Z,17.70
2022-08-22T21:14:57.499Z,17.70
2022-08-22T21:17:39.552Z,17.70
2022-08-22T21:20:19.034Z,17.60
2022-08-22T21:22:47.137Z,17.60
2022-08-22T21:25:17.775Z,17.50
2022-08-22T21:27:49.334Z,17.50
2022-08-22T21:30:24.562Z,17.50
2022-08-22T21:32:56.172Z,17.40
2022-08-22T21:35:30.224Z,17.40
2022-08-22T21:37:59.650Z,17.40
2022-08-22T21:40:33.336Z,17.30
2022-08-22T21:43:09.163Z,17.30
2022-08-22T21:45:43.140Z,17.30
2022-08-22T21:48:39.862Z,17.20
2022-08-22T21:51:25.447Z,17.20
2022-08-22T21:54:20.433Z,17.20
2022-08-22T21:56:49.879Z,17.10
2022-08-22T21:59:25.398Z,17.10
2022-08-22T22:01:53.907Z,17.10
2022-08-22T22:04:24.170Z,17.00
2022-08-22T22:06:52.204Z,17.00
2022-08-22T22:09:20.272Z,17.00
2022-08-22T22:11:48.391Z,16.90
2022-08-22T22:14:16.422Z,16.90
2022-08-22T22:16:45.936Z,16.90
2022-08-22T22:19:15.141Z,16.90
2022-08-22T22:21:43.185Z,16.80
2022-08-22T22:24:13.282Z,16.80
2022-08-22T22:26:41.352Z,16.70
2022-08-22T22:29:10.780Z,16.70
2022-08-22T22:31:38.982Z,16.60
2022-08-22T22:34:08.897Z,16.60
2022-08-22T22:36:37.313Z,16.50
2022-08-22T22:39:06.460Z,16.50
2022-08-22T22:41:34.670Z,16.50
2022-08-22T22:44:03.128Z,16.50
2022-08-22T22:46:31.985Z,16.60
2022-08-22T22:49:00.232Z,16.50
2022-08-22T22:51:29.627Z,16.50
2022-08-22T22:53:58.284Z,16.40
2022-08-22T22:56:26.564Z,16.40
2022-08-22T22:58:59.095Z,16.40
2022-08-22T23:01:59.191Z,16.40
2022-08-22T23:04:27.298Z,16.50
2022-08-22T23:07:03.254Z,16.40
2022-08-22T23:09:44.970Z,16.40
2022-08-22T23:12:25.691Z,16.30
2022-08-22T23:15:16.980Z,16.20
2022-08-22T23:17:45.916Z,16.10
2022-08-22T23:20:14.094Z,16.00
2022-08-22T23:22:45.120Z,16.00
2022-08-22T23:25:15.359Z,16.00
2022-08-22T23:27:43.649Z,15.90
2022-08-22T23:30:12.906Z,15.90
2022-08-22T23:32:40.994Z,15.80
2022-08-22T23:35:09.946Z,15.70
2022-08-22T23:37:38.131Z,15.70
2022-08-22T23:40:09.564Z,15.60
2022-08-22T23:42:37.942Z,15.60
2022-08-22T23:45:07.276Z,15.60
2022-08-22T23:47:35.632Z,15.50
2022-08-22T23:50:06.660Z,15.60
2022-08-22T23:52:35.058Z,15.50
2022-08-22T23:55:03.065Z,15.40
2022-08-22T23:57:32.654Z,15.40
